EYVIEYKA

Guest
Details From EYVI - Vilnius Intl
To EYKA - Kaunas Intl
Flight Number -
Tags Generated
Created
Modified
Stats Distance 47 nm / 87 km
Max Altitude 0 ft / 0 m
Waypoints 2
Social Downloads 2
Likes 0
Share VATSIM

Download

Looking for another format? Having issues loading an existing format? Contact us
Advertisement - Login to hide

Notes

Generated

Route

EYVI EYKA

ID Type Via Altitude Latitude Longitude Leg Dist Tot Dist Heading (true) Name
O EYVI APT - 0 ft / 0 m 54.62373˚ 25.27855˚ - 0 nm - -
O EYKA APT - 0 ft / 0 m 54.96267˚ 24.05949˚ 46 nm 46 nm 296° / 295° -

Altitude Profile

Advertisement - Login to hide

EYVI

Details ICAO EYVI (VNO)
Name VILNIUS INTL
Region Lithuania
Timezone Europe/Vilnius (UTC+3.0)
Stats Elevation 646 ft / 197 m (AMSL)
Location 54.634166° 25.285796°
Runways 1
Magnetic Variation 7.529° E

METAR

EYVI 231220Z 31006KT 260V350 9999 FEW050CB SCT150 18/09 Q1021 NOSIG

Decode

TAF

TAF TAF EYVI 230506Z 2306/2406 VRB04KT 9000 SCT015 BKN035 TEMPO 2306/2308 BKN020CB TEMPO 2308/2315 32014KT 3000 TSRA SCT005 BKN020CB BECMG 2318/2319 NSC TEMPO 2322/2404 1500 MIFG BR SCT005

Decode

Departure Runways

ID Width Length Bearing (true) Bearing (mag) Surface Threshold Offset Overrun Length
02 164 ft / 50 m 8,210 ft / 2,502 m 21.89° 14.36° Asphalt 0 ft / 0 m 151 ft / 46 m
20 164 ft / 50 m 8,210 ft / 2,502 m 201.91° 194.38° Asphalt 0 ft / 0 m 0 ft / 0 m

EYKA

Details ICAO EYKA (KUN)
Name Kaunas Intl
Region Lithuania
Timezone Europe/Vilnius (UTC+3.0)
Stats Elevation 256 ft / 78 m (AMSL)
Location 54.963881° 24.084001°
Runways 1
Magnetic Variation 7.269° E

METAR

EYKA 231220Z 30006KT 260V010 9999 FEW049CB BKN081 19/11 Q1022

Decode

TAF

Not found

Destination Runways

ID Width Length Bearing (true) Bearing (mag) Surface Threshold Offset Overrun Length
08 148 ft / 45 m 10,309 ft / 3,142 m 85.05° 77.78° Asphalt 1,116 ft / 340 m 240 ft / 73 m
26 148 ft / 45 m 10,309 ft / 3,142 m 265.09° 257.82° Asphalt 789 ft / 240 m 240 ft / 73 m

Approach Navaids

Runway Type Ident Frequency Range Bearing (true) Bearing (mag) Slope Elevation
08 Localiser IKM 109.50 MHz 18 nm / 33 km 85.09° 77.83° - 256 ft / 78 m (AMSL)
08 Glidescope IKM 109.50 MHz 10 nm / 19 km 85.07° 77.80° 3.00° 256 ft / 78 m (AMSL)
26 Localiser ISE 109.90 MHz 18 nm / 33 km 265.04° 257.78° - 256 ft / 78 m (AMSL)
26 Glidescope ISE 109.90 MHz 10 nm / 19 km 265.07° 257.80° 3.00° 256 ft / 78 m (AMSL)

Popular Alternatives